Time;durP1;ratioP1;P1;durP2;ratioP2;P2;SDS_P1;SDS_P2;PMS_P1;PMS_P2;Temp;Humidity;BMP_temperature;BMP_pressure;BME280_temperature;BME280_humidity;BME280_pressure;Samples;Min_cycle;Max_cycle;Signal;HPM_P1;HPM_P2
2023/08/21 00:02:25;;;;;;;7.50;3.38;;;29.30;43.30;;;;;;5038520;28;20037;-70
2023/08/21 00:04:51;;;;;;;5.57;3.22;;;29.40;43.40;;;;;;5055556;28;20515;-70
2023/08/21 00:07:17;;;;;;;4.53;3.35;;;29.30;43.40;;;;;;5073900;28;20056;-70
2023/08/21 00:09:43;;;;;;;6.03;3.05;;;29.40;43.50;;;;;;5069113;28;20060;-70
2023/08/21 00:12:09;;;;;;;3.58;3.08;;;29.40;43.50;;;;;;5073704;28;20446;-70
2023/08/21 00:14:35;;;;;;;5.47;3.80;;;29.30;43.60;;;;;;5070567;28;20028;-70
2023/08/21 00:17:05;;;;;;;3.28;2.70;;;29.50;43.60;;;;;;5071486;28;20021;-70
2023/08/21 00:19:32;;;;;;;5.30;3.08;;;29.40;43.70;;;;;;5071179;28;20042;-70
2023/08/21 00:21:59;;;;;;;3.72;3.20;;;29.30;43.70;;;;;;5073452;28;20028;-70
2023/08/21 00:24:25;;;;;;;6.18;3.28;;;29.40;43.80;;;;;;5072292;28;20017;-71
2023/08/21 00:26:51;;;;;;;5.13;3.15;;;29.40;43.80;;;;;;5073522;28;20039;-70
2023/08/21 00:29:17;;;;;;;4.43;3.80;;;29.30;43.80;;;;;;5071758;28;20024;-70
2023/08/21 00:31:43;;;;;;;6.50;3.47;;;29.30;43.90;;;;;;5071270;28;20067;-71
2023/08/21 00:34:09;;;;;;;5.28;3.10;;;29.40;43.90;;;;;;5061790;28;20064;-70
2023/08/21 00:36:35;;;;;;;4.90;3.28;;;29.40;44.00;;;;;;5073211;28;20033;-70
2023/08/21 00:39:01;;;;;;;3.95;2.88;;;29.30;44.00;;;;;;5060874;28;20137;-70
2023/08/21 00:41:29;;;;;;;7.18;3.40;;;29.30;44.10;;;;;;5072060;28;20072;-70
2023/08/21 00:43:55;;;;;;;4.90;3.33;;;29.40;44.10;;;;;;5073092;28;20055;-70
2023/08/21 00:46:21;;;;;;;3.88;3.47;;;29.30;44.10;;;;;;5050610;28;20049;-70
2023/08/21 00:48:48;;;;;;;4.05;3.53;;;29.30;44.20;;;;;;5056613;28;20028;-70
2023/08/21 00:51:16;;;;;;;5.45;3.38;;;29.40;44.30;;;;;;5068049;28;20036;-70
2023/08/21 00:53:42;;;;;;;4.97;3.30;;;29.40;44.30;;;;;;5071547;28;20513;-70
2023/08/21 00:56:09;;;;;;;4.30;3.03;;;29.20;44.30;;;;;;5067597;28;20056;-71
2023/08/21 00:58:36;;;;;;;4.72;2.72;;;29.20;44.30;;;;;;5049125;28;20497;-70
2023/08/21 01:01:04;;;;;;;4.05;2.80;;;29.30;44.30;;;;;;5045945;28;20480;-70
2023/08/21 01:03:30;;;;;;;6.47;3.28;;;29.20;44.40;;;;;;5066940;28;20039;-71
2023/08/21 01:05:57;;;;;;;3.83;3.30;;;29.40;44.40;;;;;;5053023;28;20473;-70
2023/08/21 01:08:42;;;;;;;7.30;3.60;;;29.10;44.40;;;;;;5052172;28;20021;-70
2023/08/21 01:11:18;;;;;;;5.45;3.10;;;29.30;44.60;;;;;;5072532;28;20456;-70
2023/08/21 01:13:52;;;;;;;4.22;3.80;;;29.10;44.60;;;;;;5068683;28;20039;-70
2023/08/21 01:16:21;;;;;;;7.05;3.10;;;29.20;44.60;;;;;;5059414;28;20029;-70
2023/08/21 01:18:49;;;;;;;5.60;3.35;;;29.10;44.70;;;;;;5050865;28;20408;-70
2023/08/21 01:21:16;;;;;;;4.70;3.63;;;29.20;44.70;;;;;;5052891;28;20033;-70
2023/08/21 01:23:43;;;;;;;8.70;3.33;;;29.20;44.70;;;;;;5042546;28;20030;-70
2023/08/21 01:26:09;;;;;;;6.70;3.40;;;29.20;44.80;;;;;;5031103;28;20360;-70
2023/08/21 01:28:36;;;;;;;6.30;3.22;;;29.20;44.90;;;;;;5037435;28;20037;-70
2023/08/21 01:31:08;;;;;;;4.88;3.17;;;29.20;44.90;;;;;;5068865;28;20070;-70
2023/08/21 01:33:40;;;;;;;6.53;3.22;;;29.20;44.90;;;;;;5051375;28;20051;-70
2023/08/21 01:36:06;;;;;;;4.68;3.20;;;29.30;45.00;;;;;;5072026;28;20048;-70
2023/08/21 01:38:35;;;;;;;7.57;3.10;;;29.20;45.00;;;;;;5070893;28;20079;-70
2023/08/21 01:41:02;;;;;;;7.03;3.50;;;29.20;45.10;;;;;;5070594;28;20412;-70
2023/08/21 01:43:28;;;;;;;5.13;3.00;;;29.20;45.10;;;;;;5069062;28;20104;-70
2023/08/21 01:45:55;;;;;;;7.53;3.30;;;29.20;45.20;;;;;;5067428;28;20183;-70
2023/08/21 01:48:21;;;;;;;9.40;3.25;;;29.20;45.20;;;;;;5069142;28;20044;-70
2023/08/21 01:50:47;;;;;;;5.70;3.47;;;29.20;45.20;;;;;;5071582;28;20033;-70
2023/08/21 01:53:13;;;;;;;4.45;3.05;;;29.20;45.20;;;;;;5050585;28;20047;-70
2023/08/21 01:55:39;;;;;;;4.43;2.90;;;29.20;45.30;;;;;;5051813;28;20475;-70
2023/08/21 01:58:05;;;;;;;5.85;3.50;;;29.20;45.30;;;;;;5051349;28;20043;-70
2023/08/21 02:00:31;;;;;;;4.55;3.50;;;29.20;45.30;;;;;;5064156;28;20553;-70
2023/08/21 02:02:57;;;;;;;4.68;3.22;;;29.10;45.30;;;;;;5069104;28;20064;-70
2023/08/21 02:05:23;;;;;;;4.50;3.25;;;29.10;45.40;;;;;;5069290;28;20464;-70
2023/08/21 02:07:49;;;;;;;4.40;3.75;;;29.20;45.40;;;;;;5052396;28;20040;-70
2023/08/21 02:10:15;;;;;;;4.78;3.47;;;29.10;45.40;;;;;;5071511;28;20028;-70
2023/08/21 02:12:41;;;;;;;5.80;3.28;;;29.10;45.50;;;;;;5066002;28;20041;-71
2023/08/21 02:15:08;;;;;;;6.97;3.67;;;29.00;45.50;;;;;;5040504;28;20108;-71
2023/08/21 02:17:34;;;;;;;6.82;3.85;;;29.10;45.50;;;;;;5070216;28;20045;-70
2023/08/21 02:20:00;;;;;;;11.63;3.50;;;29.20;45.60;;;;;;5069227;28;20106;-70
2023/08/21 02:22:26;;;;;;;6.65;3.35;;;29.00;45.60;;;;;;5070253;28;20039;-70
2023/08/21 02:24:52;;;;;;;5.00;3.38;;;29.10;45.70;;;;;;5070116;28;20032;-70
2023/08/21 02:27:18;;;;;;;9.20;3.45;;;29.10;45.70;;;;;;5070026;28;20097;-70
2023/08/21 02:29:44;;;;;;;5.80;3.50;;;29.00;45.70;;;;;;5050328;28;20025;-70
2023/08/21 02:32:10;;;;;;;5.25;3.20;;;29.10;45.80;;;;;;5058399;28;20047;-70
2023/08/21 02:34:36;;;;;;;8.80;3.58;;;29.10;45.80;;;;;;5068670;28;20090;-70
2023/08/21 02:37:02;;;;;;;7.78;4.00;;;29.00;45.80;;;;;;5070819;28;20032;-70
2023/08/21 02:39:28;;;;;;;4.00;3.30;;;29.10;45.80;;;;;;5069222;28;20037;-71
2023/08/21 02:41:54;;;;;;;5.50;3.40;;;29.10;45.90;;;;;;5069557;28;20450;-70
2023/08/21 02:44:20;;;;;;;6.22;3.78;;;29.10;46.00;;;;;;5067313;28;20036;-70
2023/08/21 02:46:47;;;;;;;4.22;3.58;;;29.00;46.00;;;;;;5053896;28;20052;-70
2023/08/21 02:49:13;;;;;;;5.63;3.80;;;29.20;46.00;;;;;;5048992;28;20036;-70
2023/08/21 02:51:39;;;;;;;4.88;3.67;;;29.10;46.10;;;;;;5069869;28;20633;-69
2023/08/21 02:54:06;;;;;;;7.97;3.60;;;29.10;46.10;;;;;;5059983;28;20025;-70
2023/08/21 02:56:33;;;;;;;4.28;3.63;;;29.10;46.10;;;;;;5029961;28;20042;-70
2023/08/21 02:58:59;;;;;;;4.85;3.90;;;29.10;46.20;;;;;;5067942;28;20041;-70
2023/08/21 03:01:25;;;;;;;4.43;3.90;;;29.10;46.20;;;;;;5069830;28;20104;-70
2023/08/21 03:03:51;;;;;;;11.18;4.28;;;29.20;46.20;;;;;;5073698;28;20392;-70
2023/08/21 03:06:17;;;;;;;4.90;3.53;;;29.10;46.20;;;;;;5060177;28;20035;-70
2023/08/21 03:08:43;;;;;;;5.03;3.58;;;29.20;46.20;;;;;;5074904;28;20036;-70
2023/08/21 03:11:10;;;;;;;7.82;4.05;;;29.10;46.30;;;;;;5055794;28;20037;-70
2023/08/21 03:13:36;;;;;;;6.60;4.13;;;29.10;46.30;;;;;;5032695;28;20041;-70
2023/08/21 03:16:02;;;;;;;9.73;3.83;;;29.10;46.30;;;;;;5030757;28;20036;-70
2023/08/21 03:18:31;;;;;;;4.75;3.83;;;28.90;45.80;;;;;;5061828;28;20029;-70
2023/08/21 03:20:57;;;;;;;5.30;3.45;;;29.10;46.30;;;;;;5055416;28;20029;-70
2023/08/21 03:23:23;;;;;;;7.47;3.67;;;29.10;46.40;;;;;;5069375;28;20082;-70
2023/08/21 03:25:53;;;;;;;8.82;4.60;;;29.00;46.40;;;;;;5048283;28;20045;-70
2023/08/21 03:28:19;;;;;;;10.40;3.63;;;29.00;46.40;;;;;;5073058;28;20496;-71
2023/08/21 03:30:45;;;;;;;4.93;3.88;;;28.90;45.90;;;;;;5070895;28;20039;-69
2023/08/21 03:33:11;;;;;;;6.55;4.47;;;29.00;46.60;;;;;;5073144;28;20491;-70
2023/08/21 03:35:38;;;;;;;4.85;4.00;;;28.90;46.00;;;;;;5070970;28;20522;-70
2023/08/21 03:38:04;;;;;;;6.00;4.28;;;28.90;46.10;;;;;;5073301;28;20028;-70
2023/08/21 03:40:39;;;;;;;5.75;4.72;;;29.00;46.60;;;;;;5072880;28;20038;-70
2023/08/21 03:43:05;;;;;;;10.52;4.97;;;28.90;46.10;;;;;;5070241;28;20020;-70
2023/08/21 03:45:31;;;;;;;6.57;4.13;;;29.00;46.70;;;;;;5069286;28;20044;-70
2023/08/21 03:47:57;;;;;;;4.85;4.10;;;28.90;46.10;;;;;;5071253;28;20062;-70
2023/08/21 03:50:24;;;;;;;5.00;3.97;;;29.10;46.70;;;;;;5069671;28;20047;-70
2023/08/21 03:52:50;;;;;;;6.90;4.80;;;29.10;46.70;;;;;;5053522;28;20045;-70
2023/08/21 03:55:16;;;;;;;6.95;4.82;;;29.00;46.70;;;;;;5070253;28;20048;-71
2023/08/21 03:57:42;;;;;;;9.55;4.50;;;29.10;46.80;;;;;;5052737;28;20148;-70
2023/08/21 04:00:09;;;;;;;8.60;4.90;;;28.90;46.30;;;;;;5032404;28;20532;-70
2023/08/21 04:02:41;;;;;;;7.15;5.10;;;29.10;46.90;;;;;;5035645;28;20569;-70
2023/08/21 04:05:08;;;;;;;7.32;4.60;;;29.10;46.90;;;;;;5051410;28;20044;-70
2023/08/21 04:07:34;;;;;;;9.57;4.63;;;29.10;46.90;;;;;;5045704;28;20085;-70
2023/08/21 04:10:00;;;;;;;9.38;4.55;;;28.90;46.30;;;;;;5050559;28;20045;-70
2023/08/21 04:12:26;;;;;;;5.78;4.78;;;29.00;46.90;;;;;;5025534;28;20136;-70
2023/08/21 04:14:52;;;;;;;7.00;4.72;;;28.90;46.40;;;;;;5012856;28;20107;-70
2023/08/21 04:17:22;;;;;;;12.07;4.75;;;29.00;46.90;;;;;;5030971;28;20040;-70
2023/08/21 04:19:49;;;;;;;10.35;4.80;;;29.00;46.90;;;;;;5051173;28;20126;-70
2023/08/21 04:22:17;;;;;;;9.60;4.80;;;29.10;46.90;;;;;;5047454;28;20396;-71
2023/08/21 04:24:43;;;;;;;10.95;5.13;;;28.90;46.40;;;;;;5034433;28;20068;-70
2023/08/21 04:27:09;;;;;;;12.02;5.93;;;29.10;46.90;;;;;;5038612;28;20040;-71
2023/08/21 04:29:38;;;;;;;7.63;5.88;;;28.90;46.40;;;;;;5045366;28;20060;-70
2023/08/21 04:32:05;;;;;;;13.23;5.25;;;29.00;47.00;;;;;;5059897;28;20052;-71
2023/08/21 04:34:32;;;;;;;6.93;5.00;;;29.00;47.00;;;;;;5066705;28;20028;-69
2023/08/21 04:36:59;;;;;;;10.13;5.95;;;29.00;47.00;;;;;;5047392;28;20124;-69
2023/08/21 04:39:26;;;;;;;12.02;5.65;;;28.90;46.50;;;;;;5051076;28;20127;-69
2023/08/21 04:41:53;;;;;;;13.25;5.60;;;28.90;46.60;;;;;;5043097;28;20044;-70
2023/08/21 04:44:19;;;;;;;8.07;5.05;;;28.90;46.60;;;;;;5071042;28;20112;-70
2023/08/21 04:46:49;;;;;;;8.70;4.95;;;29.10;47.20;;;;;;5073177;28;20055;-70
2023/08/21 04:49:15;;;;;;;10.32;6.15;;;29.00;47.20;;;;;;5055373;28;20037;-70
2023/08/21 04:51:41;;;;;;;10.60;5.82;;;29.00;47.20;;;;;;5073340;28;20041;-70
2023/08/21 04:54:07;;;;;;;10.20;5.88;;;29.00;47.20;;;;;;5071770;28;20085;-69
2023/08/21 04:56:33;;;;;;;9.88;5.65;;;28.90;46.70;;;;;;5071728;28;20031;-70
2023/08/21 04:58:59;;;;;;;8.85;5.57;;;29.00;47.30;;;;;;5071784;28;20051;-70
2023/08/21 05:01:28;;;;;;;14.00;5.95;;;29.00;47.30;;;;;;5071668;28;20082;-69
2023/08/21 05:03:56;;;;;;;10.68;6.20;;;29.00;47.40;;;;;;5071448;28;20473;-70
2023/08/21 05:06:23;;;;;;;9.02;6.15;;;29.10;47.40;;;;;;5071642;28;20043;-70
2023/08/21 05:08:50;;;;;;;8.63;5.10;;;29.10;47.40;;;;;;5071287;28;20032;-70
2023/08/21 05:11:16;;;;;;;10.38;6.90;;;29.00;47.40;;;;;;5072657;28;20037;-69
2023/08/21 05:13:43;;;;;;;9.32;5.82;;;29.00;47.40;;;;;;5071266;28;20558;-69
2023/08/21 05:16:11;;;;;;;14.30;8.45;;;29.00;47.40;;;;;;5071274;28;20113;-70
2023/08/21 05:18:39;;;;;;;8.90;6.35;;;29.00;47.40;;;;;;5071422;28;20107;-70
2023/08/21 05:21:06;;;;;;;16.40;7.03;;;28.80;46.90;;;;;;5072057;28;20032;-69
2023/08/21 05:23:32;;;;;;;11.55;6.13;;;29.10;47.50;;;;;;5070605;28;20036;-70
2023/08/21 05:26:03;;;;;;;7.40;5.72;;;28.90;46.90;;;;;;5055024;28;20135;-70
2023/08/21 05:28:29;;;;;;;11.68;5.97;;;28.90;46.90;;;;;;5054662;28;20036;-70
2023/08/21 05:30:55;;;;;;;6.63;4.60;;;28.90;47.00;;;;;;5071163;28;20526;-69
2023/08/21 05:33:21;;;;;;;7.47;4.72;;;28.90;47.00;;;;;;5060228;28;20065;-70
2023/08/21 05:35:50;;;;;;;9.73;6.45;;;29.00;47.50;;;;;;5051195;28;20106;-70
2023/08/21 05:38:16;;;;;;;5.05;4.10;;;28.80;47.00;;;;;;5052254;28;20037;-69
2023/08/21 05:40:42;;;;;;;2.75;2.05;;;28.90;47.00;;;;;;5050998;28;20083;-70
2023/08/21 05:43:09;;;;;;;1.85;1.70;;;28.90;47.10;;;;;;5034379;28;20028;-70
2023/08/21 05:45:36;;;;;;;2.35;2.15;;;28.90;47.10;;;;;;5050844;28;20043;-69
2023/08/21 05:48:03;;;;;;;5.35;2.78;;;28.90;47.10;;;;;;5049355;28;20147;-70
2023/08/21 05:50:29;;;;;;;1.45;1.35;;;29.00;47.70;;;;;;5032636;28;20542;-70
2023/08/21 05:52:57;;;;;;;7.05;5.07;;;29.00;47.70;;;;;;5032760;28;20052;-70
2023/08/21 05:55:24;;;;;;;7.32;5.78;;;29.00;47.70;;;;;;5032965;28;20044;-70
2023/08/21 05:57:50;;;;;;;5.32;3.15;;;29.00;47.70;;;;;;5032964;28;20489;-69
2023/08/21 06:00:18;;;;;;;7.68;6.20;;;29.00;47.80;;;;;;5016628;28;20140;-70
2023/08/21 06:02:44;;;;;;;1.20;1.10;;;28.90;47.20;;;;;;5049381;28;20040;-70
2023/08/21 06:05:19;;;;;;;0.80;0.80;;;29.00;47.80;;;;;;5032819;28;20041;-70
2023/08/21 06:07:49;;;;;;;5.28;4.55;;;29.00;47.90;;;;;;5032047;28;20496;-69
2023/08/21 06:10:17;;;;;;;5.10;3.33;;;29.00;47.80;;;;;;5036362;28;20040;-70
2023/08/21 06:12:43;;;;;;;1.80;1.52;;;29.10;47.90;;;;;;5052552;28;20040;-70
2023/08/21 06:15:10;;;;;;;0.70;0.70;;;28.90;47.30;;;;;;5052686;28;20047;-71
2023/08/21 06:17:37;;;;;;;3.30;3.00;;;29.00;47.90;;;;;;5052165;28;20415;-70
2023/08/21 06:20:08;;;;;;;5.43;4.38;;;29.00;47.90;;;;;;5071353;28;20137;-69
2023/08/21 06:22:35;;;;;;;2.33;2.13;;;29.00;47.90;;;;;;5070484;28;20028;-70
2023/08/21 06:25:02;;;;;;;6.43;4.53;;;29.10;50.40;;;;;;5071573;28;20032;-71
2023/08/21 06:27:28;;;;;;;7.78;5.05;;;29.10;50.10;;;;;;5070161;28;20064;-71
2023/08/21 06:29:54;;;;;;;8.25;6.15;;;29.10;52.10;;;;;;5070061;28;20035;-71
2023/08/21 06:32:20;;;;;;;8.10;6.38;;;29.10;54.20;;;;;;5071024;28;20052;-71
2023/08/21 06:34:46;;;;;;;7.38;6.28;;;29.30;54.60;;;;;;5068429;28;20037;-72
2023/08/21 06:37:12;;;;;;;9.57;6.30;;;29.20;51.80;;;;;;5058552;28;20025;-70
2023/08/21 06:39:39;;;;;;;8.52;6.03;;;29.20;51.40;;;;;;5057274;28;20028;-71
2023/08/21 06:42:05;;;;;;;8.15;6.32;;;29.10;50.90;;;;;;5070997;28;20123;-71
2023/08/21 06:44:39;;;;;;;9.20;7.75;;;29.10;52.30;;;;;;5056388;28;20029;-71
2023/08/21 06:47:06;;;;;;;14.82;9.88;;;29.20;52.50;;;;;;5050690;28;20057;-72
2023/08/21 06:49:32;;;;;;;8.98;5.97;;;29.20;53.10;;;;;;5049326;28;20052;-71
2023/08/21 06:51:59;;;;;;;7.22;6.22;;;29.20;51.80;;;;;;5053858;28;20021;-70
2023/08/21 06:54:25;;;;;;;9.40;6.20;;;29.20;52.60;;;;;;5070720;28;20063;-70
2023/08/21 06:56:51;;;;;;;8.32;6.07;;;29.10;53.00;;;;;;5070952;28;20089;-70
2023/08/21 06:59:17;;;;;;;7.90;6.38;;;29.20;52.30;;;;;;5070822;28;20037;-70
2023/08/21 07:01:43;;;;;;;7.47;6.13;;;29.10;51.90;;;;;;5071164;28;20089;-70
2023/08/21 07:04:09;;;;;;;8.90;5.97;;;29.20;52.00;;;;;;5070876;28;20039;-70
2023/08/21 07:06:35;;;;;;;9.13;6.53;;;29.40;51.90;;;;;;5070963;28;20426;-69
2023/08/21 07:09:01;;;;;;;10.18;6.40;;;29.20;51.70;;;;;;5067912;28;20099;-71
2023/08/21 07:11:27;;;;;;;6.95;5.55;;;29.30;51.50;;;;;;5050527;28;20064;-72
2023/08/21 07:13:53;;;;;;;6.40;5.75;;;29.20;51.30;;;;;;5050787;28;20060;-72
2023/08/21 07:16:19;;;;;;;6.80;5.50;;;29.40;51.10;;;;;;5050342;28;20068;-73
2023/08/21 07:18:45;;;;;;;9.32;6.22;;;29.30;51.10;;;;;;5050861;28;20063;-72
2023/08/21 07:21:11;;;;;;;7.85;5.53;;;29.40;50.90;;;;;;5050346;28;20512;-72
2023/08/21 07:23:37;;;;;;;7.88;6.00;;;29.20;51.50;;;;;;5050578;28;20057;-75
2023/08/21 07:26:05;;;;;;;6.40;5.80;;;29.40;52.20;;;;;;5049072;28;20033;-75
2023/08/21 07:28:31;;;;;;;6.03;5.45;;;29.20;51.40;;;;;;5067530;28;20059;-75
2023/08/21 07:30:57;;;;;;;11.20;5.82;;;29.30;51.40;;;;;;5067511;28;20052;-75
2023/08/21 07:33:27;;;;;;;7.07;6.22;;;29.20;51.20;;;;;;5067769;28;20512;-74
2023/08/21 07:36:03;;;;;;;8.07;6.43;;;29.40;51.70;;;;;;5067876;28;20037;-74
2023/08/21 07:38:29;;;;;;;9.52;6.82;;;29.10;51.60;;;;;;5067822;28;20047;-74
2023/08/21 07:41:11;;;;;;;6.10;5.50;;;29.30;51.60;;;;;;5067659;28;20066;-74
2023/08/21 07:43:42;;;;;;;9.65;5.85;;;29.10;51.10;;;;;;5067770;28;20163;-74
2023/08/21 07:46:18;;;;;;;8.23;5.55;;;29.20;51.00;;;;;;5070458;28;20040;-73
2023/08/21 07:48:45;;;;;;;7.10;6.25;;;29.20;50.90;;;;;;5071757;28;20507;-73
2023/08/21 07:51:12;;;;;;;6.82;5.97;;;29.30;50.90;;;;;;5071491;28;20063;-72
2023/08/21 07:53:38;;;;;;;6.28;5.05;;;29.20;51.00;;;;;;5054842;28;20555;-72
2023/08/21 07:56:04;;;;;;;6.70;5.38;;;29.30;51.00;;;;;;5071137;28;20036;-72
2023/08/21 07:58:31;;;;;;;8.63;5.70;;;29.20;51.00;;;;;;5069905;28;20039;-72
2023/08/21 08:00:57;;;;;;;10.30;6.35;;;29.40;51.10;;;;;;5053953;28;20032;-72
2023/08/21 08:03:24;;;;;;;6.82;5.78;;;29.20;51.00;;;;;;5052466;28;20530;-72
2023/08/21 08:05:50;;;;;;;7.43;5.55;;;29.40;51.10;;;;;;5053803;28;20036;-72
2023/08/21 08:08:19;;;;;;;9.38;6.00;;;29.30;51.00;;;;;;5053479;28;20699;-74
2023/08/21 08:10:45;;;;;;;8.65;5.70;;;29.40;51.00;;;;;;5053825;28;20041;-73
2023/08/21 08:13:11;;;;;;;7.72;6.00;;;29.40;50.90;;;;;;5052600;28;20037;-74
2023/08/21 08:15:40;;;;;;;6.95;5.78;;;29.30;50.90;;;;;;5052510;28;20463;-73
2023/08/21 08:18:11;;;;;;;9.27;5.40;;;29.40;50.90;;;;;;5053636;28;20044;-73
2023/08/21 08:20:38;;;;;;;6.35;5.75;;;29.40;50.90;;;;;;5062118;28;20081;-73
2023/08/21 08:23:03;;;;;;;7.78;5.60;;;29.40;50.90;;;;;;5073441;28;20047;-75
2023/08/21 08:25:29;;;;;;;8.85;5.63;;;29.30;51.10;;;;;;5073557;28;20032;-75
2023/08/21 08:27:58;;;;;;;9.63;6.47;;;29.20;51.10;;;;;;5072327;28;20107;-75
2023/08/21 08:30:24;;;;;;;8.50;5.82;;;29.20;51.00;;;;;;5073110;28;20028;-75
2023/08/21 08:32:50;;;;;;;7.90;5.95;;;29.20;51.10;;;;;;5072953;28;20081;-74
2023/08/21 08:35:16;;;;;;;7.18;6.47;;;29.20;51.20;;;;;;5071536;28;20124;-72
2023/08/21 08:37:42;;;;;;;6.95;5.90;;;29.20;51.40;;;;;;5073477;28;20051;-72
2023/08/21 08:40:09;;;;;;;8.80;6.57;;;29.10;51.60;;;;;;5072906;28;20043;-75
2023/08/21 08:42:36;;;;;;;8.40;6.20;;;29.10;51.70;;;;;;5072775;28;20040;-75
2023/08/21 08:45:05;;;;;;;6.32;5.70;;;29.10;51.70;;;;;;5072838;28;20024;-72
2023/08/21 08:47:36;;;;;;;7.88;6.40;;;29.20;51.60;;;;;;5072783;28;20541;-72
2023/08/21 08:50:06;;;;;;;6.88;6.18;;;29.10;51.40;;;;;;5072729;28;20036;-71
2023/08/21 08:52:39;;;;;;;9.18;6.70;;;29.10;51.40;;;;;;5072787;28;20036;-71
2023/08/21 08:55:09;;;;;;;7.53;6.28;;;29.10;51.40;;;;;;5071632;28;20028;-73
2023/08/21 08:57:35;;;;;;;6.63;5.97;;;29.10;51.40;;;;;;5072901;28;20550;-71
2023/08/21 09:00:05;;;;;;;7.80;6.22;;;29.10;51.50;;;;;;5072837;28;20033;-69
2023/08/21 09:02:33;;;;;;;8.70;6.13;;;29.10;51.40;;;;;;5072565;28;20049;-69
2023/08/21 09:04:59;;;;;;;9.23;6.60;;;29.10;51.50;;;;;;5073003;28;20036;-69
2023/08/21 09:07:26;;;;;;;9.75;5.00;;;29.10;51.50;;;;;;5072790;28;20036;-75
2023/08/21 09:09:52;;;;;;;5.10;4.38;;;29.20;51.60;;;;;;5072907;28;20046;-74
2023/08/21 09:12:21;;;;;;;7.05;5.65;;;29.10;51.50;;;;;;5072410;28;20032;-73
2023/08/21 09:14:47;;;;;;;5.72;5.13;;;29.10;51.60;;;;;;5072523;28;20041;-73
2023/08/21 09:17:14;;;;;;;8.93;5.78;;;29.10;51.70;;;;;;5072542;28;20119;-73
2023/08/21 09:19:40;;;;;;;5.93;5.10;;;29.10;51.70;;;;;;5072508;28;20530;-74
2023/08/21 09:22:18;;;;;;;5.57;5.07;;;29.20;51.70;;;;;;5072261;28;20036;-74
2023/08/21 09:25:20;;;;;;;6.32;5.00;;;29.10;51.60;;;;;;5072538;28;20037;-74
2023/08/21 09:27:51;;;;;;;6.05;5.45;;;29.20;51.70;;;;;;5019960;28;20038;-70
2023/08/21 09:30:17;;;;;;;5.45;4.93;;;29.10;51.80;;;;;;5001284;28;20060;-69
2023/08/21 09:32:57;;;;;;;6.38;5.45;;;29.20;51.90;;;;;;5009905;28;20069;-69
2023/08/21 09:35:24;;;;;;;12.43;5.53;;;29.40;51.90;;;;;;5010081;28;20049;-69
2023/08/21 09:37:52;;;;;;;5.75;5.15;;;29.20;51.90;;;;;;4991012;28;20032;-70
2023/08/21 09:40:19;;;;;;;5.57;5.07;;;29.20;51.80;;;;;;4990280;28;20042;-70
2023/08/21 09:42:45;;;;;;;6.28;5.50;;;29.30;51.80;;;;;;4990021;28;20053;-67
2023/08/21 09:45:12;;;;;;;6.32;5.18;;;29.10;51.80;;;;;;4997445;28;20132;-69
2023/08/21 09:47:39;;;;;;;5.45;4.95;;;29.10;51.60;;;;;;4973843;28;20141;-70
2023/08/21 09:50:05;;;;;;;6.43;5.43;;;29.00;51.50;;;;;;5006617;28;20041;-70
2023/08/21 09:52:32;;;;;;;5.18;4.68;;;29.10;51.50;;;;;;5009464;28;20041;-69
2023/08/21 09:55:18;;;;;;;5.55;5.05;;;29.10;51.50;;;;;;5009764;28;20433;-71
2023/08/21 09:57:45;;;;;;;6.20;5.00;;;29.10;51.50;;;;;;5009735;28;20042;-71
2023/08/21 10:00:20;;;;;;;5.35;4.82;;;29.10;51.50;;;;;;5009514;28;20041;-70
2023/08/21 10:02:50;;;;;;;6.63;5.22;;;29.10;51.60;;;;;;5048377;28;20114;-70
2023/08/21 10:05:17;;;;;;;6.28;4.65;;;29.00;51.70;;;;;;5049678;28;20041;-69
2023/08/21 10:07:47;;;;;;;7.82;5.63;;;29.10;51.60;;;;;;5032137;28;20037;-71
2023/08/21 10:10:14;;;;;;;7.43;5.15;;;29.00;51.60;;;;;;5031794;28;20038;-72
2023/08/21 10:12:40;;;;;;;6.63;5.93;;;29.00;51.80;;;;;;5031534;28;20025;-72
2023/08/21 10:15:09;;;;;;;7.32;6.30;;;29.10;53.50;;;;;;5040587;28;20115;-70
2023/08/21 10:17:36;;;;;;;10.05;6.32;;;29.20;54.80;;;;;;5050375;28;20043;-70
2023/08/21 10:20:04;;;;;;;6.28;5.53;;;29.30;54.60;;;;;;5050017;28;20068;-70
2023/08/21 10:22:42;;;;;;;5.32;4.82;;;29.30;53.70;;;;;;5057126;28;20034;-69
2023/08/21 10:25:22;;;;;;;6.45;4.97;;;29.20;53.40;;;;;;5071423;28;20098;-71
2023/08/21 10:28:03;;;;;;;5.18;4.53;;;29.10;53.10;;;;;;5064033;28;20024;-67
2023/08/21 10:30:29;;;;;;;11.45;6.45;;;29.30;53.10;;;;;;5037305;28;20029;-71
2023/08/21 10:32:58;;;;;;;9.60;6.55;;;29.30;54.50;;;;;;5057516;28;20040;-71
2023/08/21 10:35:28;;;;;;;6.30;5.65;;;29.40;54.00;;;;;;5045345;28;20086;-72
2023/08/21 10:38:08;;;;;;;7.68;6.88;;;29.30;52.90;;;;;;5031093;28;20029;-70
2023/08/21 10:40:38;;;;;;;12.63;6.28;;;29.40;53.60;;;;;;5030565;28;20041;-70
2023/08/21 10:43:24;;;;;;;6.40;4.93;;;29.40;53.10;;;;;;5055813;28;20032;-70
2023/08/21 10:45:57;;;;;;;6.63;5.28;;;29.50;54.30;;;;;;5069023;28;20104;-76
2023/08/21 10:48:23;;;;;;;5.15;4.72;;;29.30;53.40;;;;;;5070604;28;20581;-72
2023/08/21 10:50:50;;;;;;;6.07;5.45;;;29.60;52.80;;;;;;5070849;28;20086;-78
2023/08/21 10:53:16;;;;;;;5.85;5.03;;;29.50;52.30;;;;;;5065553;28;20082;-68
2023/08/21 10:55:42;;;;;;;6.93;5.03;;;29.40;51.70;;;;;;5056871;28;20029;-71
2023/08/21 10:58:11;;;;;;;5.07;4.10;;;29.40;51.40;;;;;;5058499;28;20025;-71
2023/08/21 11:00:37;;;;;;;5.18;4.68;;;29.40;51.00;;;;;;5030896;28;20101;-72
2023/08/21 11:03:03;;;;;;;6.22;5.30;;;29.40;50.80;;;;;;5063348;28;20472;-71
2023/08/21 11:05:29;;;;;;;10.23;4.93;;;29.40;50.30;;;;;;5070958;28;20037;-72
2023/08/21 11:07:55;;;;;;;4.35;3.90;;;29.50;50.00;;;;;;5071023;28;20055;-71
2023/08/21 11:10:23;;;;;;;5.38;4.53;;;29.60;49.60;;;;;;5070734;28;20037;-70
2023/08/21 11:12:57;;;;;;;6.13;5.20;;;29.40;49.20;;;;;;5069311;28;20041;-71
2023/08/21 11:15:25;;;;;;;6.20;4.80;;;29.60;48.90;;;;;;5070788;28;20044;-71
2023/08/21 11:17:56;;;;;;;5.88;5.13;;;29.60;48.40;;;;;;5071068;28;20032;-71
2023/08/21 11:20:27;;;;;;;8.45;4.97;;;29.50;47.70;;;;;;5072179;28;20029;-70
2023/08/21 11:22:58;;;;;;;5.63;5.05;;;29.60;49.30;;;;;;5074656;28;20032;-72
2023/08/21 11:25:24;;;;;;;5.97;4.93;;;29.70;49.30;;;;;;5074724;28;20093;-74
2023/08/21 11:27:52;;;;;;;6.22;5.15;;;29.70;48.60;;;;;;5073333;28;20061;-73
2023/08/21 11:30:18;;;;;;;7.15;4.88;;;29.70;47.90;;;;;;5074384;28;20093;-72
2023/08/21 11:32:44;;;;;;;5.78;4.50;;;29.60;47.20;;;;;;5074380;28;20041;-73
2023/08/21 11:35:10;;;;;;;5.60;5.10;;;29.60;46.50;;;;;;5073388;28;20025;-74
2023/08/21 11:37:45;;;;;;;6.05;5.25;;;29.70;46.60;;;;;;5054938;28;20033;-74
2023/08/21 11:40:13;;;;;;;5.47;4.97;;;29.80;46.70;;;;;;5054454;28;20381;-74
2023/08/21 11:42:40;;;;;;;8.50;5.07;;;29.90;47.50;;;;;;5054331;28;20118;-74
2023/08/21 11:45:06;;;;;;;9.20;4.68;;;29.90;48.10;;;;;;5064731;28;20041;-74
2023/08/21 11:47:34;;;;;;;6.20;4.70;;;30.00;48.10;;;;;;5054280;28;20151;-77
2023/08/21 11:50:09;;;;;;;5.88;4.63;;;30.10;47.80;;;;;;5054589;28;20048;-74
2023/08/21 11:52:38;;;;;;;5.10;4.35;;;29.90;46.50;;;;;;5054104;28;20033;-74
2023/08/21 11:55:13;;;;;;;6.10;4.68;;;29.80;46.00;;;;;;5054277;28;20049;-75
2023/08/21 11:57:49;;;;;;;5.07;4.45;;;30.00;46.10;;;;;;5054012;28;20029;-77
2023/08/21 12:00:21;;;;;;;5.50;4.38;;;29.90;45.20;;;;;;5054075;28;20072;-76
2023/08/21 12:03:02;;;;;;;4.93;4.43;;;30.00;45.60;;;;;;5053834;28;20048;-75
2023/08/21 12:05:28;;;;;;;4.65;4.25;;;29.90;44.70;;;;;;5054095;28;20032;-74
2023/08/21 12:07:55;;;;;;;7.30;4.00;;;29.90;44.40;;;;;;5053960;28;20393;-76
2023/08/21 12:10:28;;;;;;;7.55;5.10;;;30.00;44.80;;;;;;5053979;28;20033;-76
2023/08/21 12:12:55;;;;;;;6.13;5.60;;;30.00;44.60;;;;;;5053778;28;20043;-75
2023/08/21 12:15:21;;;;;;;5.15;4.65;;;30.00;44.50;;;;;;5053923;28;20116;-76
2023/08/21 12:17:47;;;;;;;3.47;3.17;;;30.00;44.30;;;;;;5052601;28;20037;-75
2023/08/21 12:20:13;;;;;;;4.68;4.28;;;29.90;43.60;;;;;;5053698;28;20104;-75
2023/08/21 12:22:40;;;;;;;4.85;4.35;;;30.00;44.10;;;;;;5053632;28;20112;-75
2023/08/21 12:25:07;;;;;;;5.10;4.10;;;30.10;43.90;;;;;;5055017;28;20086;-75
2023/08/21 12:27:33;;;;;;;4.43;4.03;;;30.10;43.80;;;;;;5053491;28;20429;-74
2023/08/21 12:29:59;;;;;;;8.52;5.28;;;29.90;43.30;;;;;;5053654;28;20036;-76
2023/08/21 12:32:25;;;;;;;4.65;4.20;;;30.10;44.00;;;;;;5034972;28;20040;-74
2023/08/21 12:34:52;;;;;;;5.80;3.72;;;29.90;43.60;;;;;;5053388;28;20125;-74
2023/08/21 12:37:18;;;;;;;7.90;4.53;;;29.90;43.40;;;;;;5052211;28;20028;-75
2023/08/21 12:39:44;;;;;;;6.05;3.72;;;29.90;45.00;;;;;;5053466;28;20036;-77
2023/08/21 12:42:11;;;;;;;4.07;3.70;;;30.00;46.50;;;;;;5053198;28;20033;-78
2023/08/21 12:44:37;;;;;;;4.07;3.67;;;30.00;45.70;;;;;;5068174;28;20067;-79
2023/08/21 12:47:03;;;;;;;4.82;3.42;;;29.90;44.60;;;;;;5073169;28;20084;-81
2023/08/21 12:49:29;;;;;;;6.38;4.30;;;29.90;44.30;;;;;;5071768;28;20094;-73